sensor_id;sensor_type;location;lat;lon;timestamp;pressure;altitude;pressure_sealevel;temperature;humidity
16978;BME280;8605;52.548;4.918;2024-02-28T00:00:47;102034.69;;;3.43;94.01
16978;BME280;8605;52.548;4.918;2024-02-28T00:03:15;102032.63;;;3.48;93.74
16978;BME280;8605;52.548;4.918;2024-02-28T00:05:43;102033.91;;;3.41;94.05
16978;BME280;8605;52.548;4.918;2024-02-28T00:08:12;102027.72;;;3.41;93.79
16978;BME280;8605;52.548;4.918;2024-02-28T00:10:41;102031.41;;;3.38;93.37
16978;BME280;8605;52.548;4.918;2024-02-28T00:13:09;102037.56;;;3.39;93.33
16978;BME280;8605;52.548;4.918;2024-02-28T00:15:37;102027.00;;;3.37;93.60
16978;BME280;8605;52.548;4.918;2024-02-28T00:18:05;102024.28;;;3.39;94.17
16978;BME280;8605;52.548;4.918;2024-02-28T00:20:33;102023.41;;;3.38;94.15
16978;BME280;8605;52.548;4.918;2024-02-28T00:23:01;102020.59;;;3.41;93.96
16978;BME280;8605;52.548;4.918;2024-02-28T00:25:29;102013.56;;;3.40;94.02
16978;BME280;8605;52.548;4.918;2024-02-28T00:27:58;102013.63;;;3.39;93.59
16978;BME280;8605;52.548;4.918;2024-02-28T00:30:26;102008.31;;;3.39;93.26
16978;BME280;8605;52.548;4.918;2024-02-28T00:32:55;102005.84;;;3.36;94.30
16978;BME280;8605;52.548;4.918;2024-02-28T00:35:23;102007.56;;;3.37;94.19
16978;BME280;8605;52.548;4.918;2024-02-28T00:37:51;102006.69;;;3.36;93.52
16978;BME280;8605;52.548;4.918;2024-02-28T00:40:19;102011.06;;;3.37;94.34
16978;BME280;8605;52.548;4.918;2024-02-28T00:42:46;102007.56;;;3.37;94.14
16978;BME280;8605;52.548;4.918;2024-02-28T00:45:16;102009.25;;;3.38;93.47
16978;BME280;8605;52.548;4.918;2024-02-28T00:47:44;102010.28;;;3.35;93.79
16978;BME280;8605;52.548;4.918;2024-02-28T00:50:12;102012.16;;;3.33;93.96
16978;BME280;8605;52.548;4.918;2024-02-28T00:52:40;102008.66;;;3.33;94.40
16978;BME280;8605;52.548;4.918;2024-02-28T00:55:08;102012.44;;;3.29;94.37
16978;BME280;8605;52.548;4.918;2024-02-28T00:57:35;102015.94;;;3.29;94.19
16978;BME280;8605;52.548;4.918;2024-02-28T01:00:04;102020.41;;;3.29;93.57
16978;BME280;8605;52.548;4.918;2024-02-28T01:02:34;102011.56;;;3.28;94.37
16978;BME280;8605;52.548;4.918;2024-02-28T01:05:02;102010.63;;;3.29;93.92
16978;BME280;8605;52.548;4.918;2024-02-28T01:07:29;102014.22;;;3.28;94.29
16978;BME280;8605;52.548;4.918;2024-02-28T01:09:57;102021.25;;;3.29;94.58
16978;BME280;8605;52.548;4.918;2024-02-28T01:12:26;102022.03;;;3.31;93.59
16978;BME280;8605;52.548;4.918;2024-02-28T01:14:53;102019.22;;;3.34;94.29
16978;BME280;8605;52.548;4.918;2024-02-28T01:17:21;102015.63;;;3.35;94.04
16978;BME280;8605;52.548;4.918;2024-02-28T01:19:50;102004.13;;;3.35;93.83
16978;BME280;8605;52.548;4.918;2024-02-28T01:22:18;102012.88;;;3.37;93.88
16978;BME280;8605;52.548;4.918;2024-02-28T01:24:46;102012.03;;;3.36;93.80
16978;BME280;8605;52.548;4.918;2024-02-28T01:27:14;102018.03;;;3.40;94.49
16978;BME280;8605;52.548;4.918;2024-02-28T01:29:41;102013.47;;;3.42;93.69
16978;BME280;8605;52.548;4.918;2024-02-28T01:32:09;102010.63;;;3.45;93.96
16978;BME280;8605;52.548;4.918;2024-02-28T01:34:37;102006.25;;;3.44;94.00
16978;BME280;8605;52.548;4.918;2024-02-28T01:37:06;102014.00;;;3.48;94.02
16978;BME280;8605;52.548;4.918;2024-02-28T01:39:34;102012.09;;;3.50;94.68
16978;BME280;8605;52.548;4.918;2024-02-28T01:42:02;102014.00;;;3.48;94.38
16978;BME280;8605;52.548;4.918;2024-02-28T01:44:30;102021.66;;;3.54;94.09
16978;BME280;8605;52.548;4.918;2024-02-28T01:46:58;102020.59;;;3.57;94.56
16978;BME280;8605;52.548;4.918;2024-02-28T01:49:26;102015.28;;;3.57;94.35
16978;BME280;8605;52.548;4.918;2024-02-28T01:51:54;102003.81;;;3.56;94.60
16978;BME280;8605;52.548;4.918;2024-02-28T01:54:25;102004.56;;;3.58;95.22
16978;BME280;8605;52.548;4.918;2024-02-28T01:56:56;102014.13;;;3.63;94.51
16978;BME280;8605;52.548;4.918;2024-02-28T01:59:26;102010.50;;;3.63;94.54
16978;BME280;8605;52.548;4.918;2024-02-28T02:01:55;102003.28;;;3.66;94.63
16978;BME280;8605;52.548;4.918;2024-02-28T02:04:23;102007.66;;;3.67;94.30
16978;BME280;8605;52.548;4.918;2024-02-28T02:06:50;102009.41;;;3.68;94.35
16978;BME280;8605;52.548;4.918;2024-02-28T02:09:20;102009.31;;;3.69;94.75
16978;BME280;8605;52.548;4.918;2024-02-28T02:11:49;102009.13;;;3.72;94.75
16978;BME280;8605;52.548;4.918;2024-02-28T02:14:17;102005.53;;;3.73;95.46
16978;BME280;8605;52.548;4.918;2024-02-28T02:16:45;102009.06;;;3.74;95.37
16978;BME280;8605;52.548;4.918;2024-02-28T02:19:13;102008.88;;;3.77;95.62
16978;BME280;8605;52.548;4.918;2024-02-28T02:21:47;102007.06;;;3.77;95.46
16978;BME280;8605;52.548;4.918;2024-02-28T02:24:18;101996.41;;;3.77;95.27
16978;BME280;8605;52.548;4.918;2024-02-28T02:26:45;102005.97;;;3.81;94.87
16978;BME280;8605;52.548;4.918;2024-02-28T02:29:13;101996.19;;;3.82;95.61
16978;BME280;8605;52.548;4.918;2024-02-28T02:31:41;102009.38;;;3.83;94.75
16978;BME280;8605;52.548;4.918;2024-02-28T02:34:09;102009.16;;;3.88;94.63
16978;BME280;8605;52.548;4.918;2024-02-28T02:36:36;101998.56;;;3.86;95.61
16978;BME280;8605;52.548;4.918;2024-02-28T02:39:04;102005.34;;;3.92;95.25
16978;BME280;8605;52.548;4.918;2024-02-28T02:41:35;101999.75;;;3.96;95.29
16978;BME280;8605;52.548;4.918;2024-02-28T02:44:03;101996.25;;;3.96;94.93
16978;BME280;8605;52.548;4.918;2024-02-28T02:46:31;102004.16;;;3.97;95.44
16978;BME280;8605;52.548;4.918;2024-02-28T02:48:59;101997.72;;;4.01;95.80
16978;BME280;8605;52.548;4.918;2024-02-28T02:51:27;101987.16;;;4.00;94.62
16978;BME280;8605;52.548;4.918;2024-02-28T02:53:54;101987.91;;;4.02;95.27
16978;BME280;8605;52.548;4.918;2024-02-28T02:56:22;101991.25;;;4.06;95.77
16978;BME280;8605;52.548;4.918;2024-02-28T02:58:51;101984.13;;;4.06;95.45
16978;BME280;8605;52.548;4.918;2024-02-28T03:01:19;101992.91;;;4.08;95.89
16978;BME280;8605;52.548;4.918;2024-02-28T03:03:47;101993.66;;;4.10;95.10
16978;BME280;8605;52.548;4.918;2024-02-28T03:06:15;101982.13;;;4.10;95.58
16978;BME280;8605;52.548;4.918;2024-02-28T03:08:43;101982.06;;;4.11;95.91
16978;BME280;8605;52.548;4.918;2024-02-28T03:11:11;101987.38;;;4.11;95.04
16978;BME280;8605;52.548;4.918;2024-02-28T03:13:39;101987.31;;;4.13;95.81
16978;BME280;8605;52.548;4.918;2024-02-28T03:16:08;101971.41;;;4.11;96.37
16978;BME280;8605;52.548;4.918;2024-02-28T03:18:36;101972.09;;;4.15;96.63
16978;BME280;8605;52.548;4.918;2024-02-28T03:21:04;101970.19;;;4.17;96.55
16978;BME280;8605;52.548;4.918;2024-02-28T03:23:32;101956.22;;;4.13;96.16
16978;BME280;8605;52.548;4.918;2024-02-28T03:26:03;101967.44;;;4.18;95.75
16978;BME280;8605;52.548;4.918;2024-02-28T03:28:31;101973.44;;;4.22;96.56
16978;BME280;8605;52.548;4.918;2024-02-28T03:30:59;101974.22;;;4.24;96.17
16978;BME280;8605;52.548;4.918;2024-02-28T03:33:28;101968.59;;;4.28;96.89
16978;BME280;8605;52.548;4.918;2024-02-28T03:35:58;101972.13;;;4.29;96.45
16978;BME280;8605;52.548;4.918;2024-02-28T03:38:25;101969.38;;;4.30;96.56
16978;BME280;8605;52.548;4.918;2024-02-28T03:40:53;101963.13;;;4.31;96.78
16978;BME280;8605;52.548;4.918;2024-02-28T03:43:21;101963.03;;;4.33;96.74
16978;BME280;8605;52.548;4.918;2024-02-28T03:45:49;101959.31;;;4.35;96.68
16978;BME280;8605;52.548;4.918;2024-02-28T03:48:17;101963.34;;;4.42;96.86
16978;BME280;8605;52.548;4.918;2024-02-28T03:50:46;101977.72;;;4.40;96.17
16978;BME280;8605;52.548;4.918;2024-02-28T03:53:14;101967.56;;;4.47;96.53
16978;BME280;8605;52.548;4.918;2024-02-28T03:55:41;101977.22;;;4.48;96.87
16978;BME280;8605;52.548;4.918;2024-02-28T03:58:10;101972.03;;;4.46;96.30
16978;BME280;8605;52.548;4.918;2024-02-28T04:00:38;101973.25;;;4.55;97.06
16978;BME280;8605;52.548;4.918;2024-02-28T04:03:05;101980.31;;;4.56;96.58
16978;BME280;8605;52.548;4.918;2024-02-28T04:05:35;101976.53;;;4.60;97.42
16978;BME280;8605;52.548;4.918;2024-02-28T04:08:05;101982.63;;;4.62;96.78
16978;BME280;8605;52.548;4.918;2024-02-28T04:10:35;101981.00;;;4.59;97.25
16978;BME280;8605;52.548;4.918;2024-02-28T04:13:03;101984.03;;;4.67;96.61
16978;BME280;8605;52.548;4.918;2024-02-28T04:15:31;101978.63;;;4.69;96.83
16978;BME280;8605;52.548;4.918;2024-02-28T04:17:59;101988.44;;;4.68;96.61
16978;BME280;8605;52.548;4.918;2024-02-28T04:20:27;101988.34;;;4.70;97.20
16978;BME280;8605;52.548;4.918;2024-02-28T04:22:54;101993.84;;;4.67;96.95
16978;BME280;8605;52.548;4.918;2024-02-28T04:25:23;101991.19;;;4.67;96.61
16978;BME280;8605;52.548;4.918;2024-02-28T04:27:51;101983.47;;;4.62;96.98
16978;BME280;8605;52.548;4.918;2024-02-28T04:30:18;102004.34;;;4.70;96.65
16978;BME280;8605;52.548;4.918;2024-02-28T04:32:46;102007.78;;;4.72;97.00
16978;BME280;8605;52.548;4.918;2024-02-28T04:35:14;102007.34;;;4.79;97.58
16978;BME280;8605;52.548;4.918;2024-02-28T04:37:45;102007.41;;;4.78;97.08
16978;BME280;8605;52.548;4.918;2024-02-28T04:40:13;102005.50;;;4.80;98.01
16978;BME280;8605;52.548;4.918;2024-02-28T04:42:43;102005.03;;;4.88;97.92
16978;BME280;8605;52.548;4.918;2024-02-28T04:45:11;102012.09;;;4.89;98.00
16978;BME280;8605;52.548;4.918;2024-02-28T04:47:39;102002.66;;;4.83;97.11
16978;BME280;8605;52.548;4.918;2024-02-28T04:50:11;102005.25;;;4.85;97.28
16978;BME280;8605;52.548;4.918;2024-02-28T04:52:38;102010.56;;;4.85;97.63
16978;BME280;8605;52.548;4.918;2024-02-28T04:55:07;102007.72;;;4.88;97.47
16978;BME280;8605;52.548;4.918;2024-02-28T04:57:35;102011.31;;;4.87;98.02
16978;BME280;8605;52.548;4.918;2024-02-28T05:00:06;102011.16;;;4.90;97.53
16978;BME280;8605;52.548;4.918;2024-02-28T05:02:35;102023.63;;;4.89;98.38
16978;BME280;8605;52.548;4.918;2024-02-28T05:05:04;102011.94;;;4.92;97.64
16978;BME280;8605;52.548;4.918;2024-02-28T05:07:31;102004.78;;;4.92;98.12
16978;BME280;8605;52.548;4.918;2024-02-28T05:10:02;102009.53;;;5.01;98.51
16978;BME280;8605;52.548;4.918;2024-02-28T05:12:30;102008.78;;;4.99;98.76
16978;BME280;8605;52.548;4.918;2024-02-28T05:14:58;102009.47;;;5.03;98.28
16978;BME280;8605;52.548;4.918;2024-02-28T05:17:27;102009.16;;;5.07;98.53
16978;BME280;8605;52.548;4.918;2024-02-28T05:19:55;101999.56;;;5.05;98.34
16978;BME280;8605;52.548;4.918;2024-02-28T05:22:24;102001.84;;;5.11;99.08
16978;BME280;8605;52.548;4.918;2024-02-28T05:24:51;102004.53;;;5.11;98.41
16978;BME280;8605;52.548;4.918;2024-02-28T05:27:20;102001.00;;;5.10;99.11
16978;BME280;8605;52.548;4.918;2024-02-28T05:29:48;102001.84;;;5.11;99.18
16978;BME280;8605;52.548;4.918;2024-02-28T05:32:16;102002.34;;;5.17;98.81
16978;BME280;8605;52.548;4.918;2024-02-28T05:34:45;101999.47;;;5.20;99.10
16978;BME280;8605;52.548;4.918;2024-02-28T05:37:16;102006.72;;;5.18;98.41
16978;BME280;8605;52.548;4.918;2024-02-28T05:39:43;101998.59;;;5.20;98.81
16978;BME280;8605;52.548;4.918;2024-02-28T05:42:12;102007.47;;;5.20;99.31
16978;BME280;8605;52.548;4.918;2024-02-28T05:44:40;102002.13;;;5.20;98.91
16978;BME280;8605;52.548;4.918;2024-02-28T05:47:08;102003.00;;;5.21;99.21
16978;BME280;8605;52.548;4.918;2024-02-28T05:49:36;102005.47;;;5.24;99.19
16978;BME280;8605;52.548;4.918;2024-02-28T05:52:05;102016.81;;;5.28;99.54
16978;BME280;8605;52.548;4.918;2024-02-28T05:54:33;102015.84;;;5.29;99.41
16978;BME280;8605;52.548;4.918;2024-02-28T05:57:02;102012.25;;;5.30;99.67
16978;BME280;8605;52.548;4.918;2024-02-28T05:59:30;102013.09;;;5.30;100.00
16978;BME280;8605;52.548;4.918;2024-02-28T06:01:57;102005.84;;;5.32;100.00
16978;BME280;8605;52.548;4.918;2024-02-28T06:04:25;102008.63;;;5.31;99.76
16978;BME280;8605;52.548;4.918;2024-02-28T06:06:53;102009.56;;;5.30;99.51
16978;BME280;8605;52.548;4.918;2024-02-28T06:09:22;102005.28;;;5.27;99.38
16978;BME280;8605;52.548;4.918;2024-02-28T06:11:49;102008.50;;;5.32;99.63
16978;BME280;8605;52.548;4.918;2024-02-28T06:14:17;102011.28;;;5.31;100.00
16978;BME280;8605;52.548;4.918;2024-02-28T06:16:48;102014.91;;;5.30;100.00
16978;BME280;8605;52.548;4.918;2024-02-28T06:19:16;102013.19;;;5.29;100.00
16978;BME280;8605;52.548;4.918;2024-02-28T06:21:44;102026.31;;;5.32;100.00
16978;BME280;8605;52.548;4.918;2024-02-28T06:24:14;102028.16;;;5.31;100.00
16978;BME280;8605;52.548;4.918;2024-02-28T06:26:44;102032.81;;;5.28;99.43
16978;BME280;8605;52.548;4.918;2024-02-28T06:29:15;102026.63;;;5.27;100.00
16978;BME280;8605;52.548;4.918;2024-02-28T06:31:43;102029.28;;;5.27;99.64
16978;BME280;8605;52.548;4.918;2024-02-28T06:34:11;102039.00;;;5.28;100.00
16978;BME280;8605;52.548;4.918;2024-02-28T06:36:40;102039.97;;;5.27;100.00
16978;BME280;8605;52.548;4.918;2024-02-28T06:39:08;102046.16;;;5.28;100.00
16978;BME280;8605;52.548;4.918;2024-02-28T06:41:36;102052.53;;;5.25;99.78
16978;BME280;8605;52.548;4.918;2024-02-28T06:44:05;102058.72;;;5.26;100.00
16978;BME280;8605;52.548;4.918;2024-02-28T06:46:34;102055.97;;;5.27;100.00
16978;BME280;8605;52.548;4.918;2024-02-28T06:49:02;102052.66;;;5.23;99.55
16978;BME280;8605;52.548;4.918;2024-02-28T06:51:31;102060.44;;;5.27;99.60
16978;BME280;8605;52.548;4.918;2024-02-28T06:53:59;102059.50;;;5.28;100.00
16978;BME280;8605;52.548;4.918;2024-02-28T06:56:26;102055.03;;;5.28;99.58
16978;BME280;8605;52.548;4.918;2024-02-28T06:58:54;102061.31;;;5.27;100.00
16978;BME280;8605;52.548;4.918;2024-02-28T07:01:23;102071.91;;;5.29;100.00
16978;BME280;8605;52.548;4.918;2024-02-28T07:03:51;102071.91;;;5.29;100.00
16978;BME280;8605;52.548;4.918;2024-02-28T07:06:19;102061.31;;;5.27;99.58
16978;BME280;8605;52.548;4.918;2024-02-28T07:08:47;102060.44;;;5.27;99.65
16978;BME280;8605;52.548;4.918;2024-02-28T07:11:15;102061.00;;;5.32;99.48
16978;BME280;8605;52.548;4.918;2024-02-28T07:13:43;102062.75;;;5.33;99.61
16978;BME280;8605;52.548;4.918;2024-02-28T07:16:13;102053.22;;;5.29;99.61
16978;BME280;8605;52.548;4.918;2024-02-28T07:18:42;102068.94;;;5.33;100.00
16978;BME280;8605;52.548;4.918;2024-02-28T07:21:10;102074.19;;;5.35;99.28
16978;BME280;8605;52.548;4.918;2024-02-28T07:23:39;102054.47;;;5.23;99.08
16978;BME280;8605;52.548;4.918;2024-02-28T07:26:07;102072.19;;;5.38;99.59
16978;BME280;8605;52.548;4.918;2024-02-28T07:28:48;102073.81;;;5.41;100.00
16978;BME280;8605;52.548;4.918;2024-02-28T07:31:17;102084.56;;;5.39;99.78
16978;BME280;8605;52.548;4.918;2024-02-28T07:33:46;102085.25;;;5.43;100.00
16978;BME280;8605;52.548;4.918;2024-02-28T07:36:13;102078.97;;;5.44;100.00
16978;BME280;8605;52.548;4.918;2024-02-28T07:38:42;102075.31;;;5.45;99.77
16978;BME280;8605;52.548;4.918;2024-02-28T07:41:09;102085.19;;;5.44;99.80
16978;BME280;8605;52.548;4.918;2024-02-28T07:43:37;102088.31;;;5.51;99.86
16978;BME280;8605;52.548;4.918;2024-02-28T07:46:06;102087.94;;;5.57;100.00
16978;BME280;8605;52.548;4.918;2024-02-28T07:48:38;102090.69;;;5.55;99.62
16978;BME280;8605;52.548;4.918;2024-02-28T07:51:07;102102.25;;;5.56;99.47
16978;BME280;8605;52.548;4.918;2024-02-28T07:53:35;102089.63;;;5.58;99.64
16978;BME280;8605;52.548;4.918;2024-02-28T07:56:03;102104.72;;;5.59;100.00
16978;BME280;8605;52.548;4.918;2024-02-28T07:58:31;102101.00;;;5.61;99.55
16978;BME280;8605;52.548;4.918;2024-02-28T08:01:00;102100.22;;;5.59;99.94
16978;BME280;8605;52.548;4.918;2024-02-28T08:03:28;102116.81;;;5.64;100.00
16978;BME280;8605;52.548;4.918;2024-02-28T08:05:56;102111.28;;;5.68;99.74
16978;BME280;8605;52.548;4.918;2024-02-28T08:08:25;102117.41;;;5.70;99.94
16978;BME280;8605;52.548;4.918;2024-02-28T08:10:52;102111.09;;;5.71;99.75
16978;BME280;8605;52.548;4.918;2024-02-28T08:13:21;102121.44;;;5.77;100.00
16978;BME280;8605;52.548;4.918;2024-02-28T08:15:48;102108.63;;;5.82;100.00
16978;BME280;8605;52.548;4.918;2024-02-28T08:18:16;102120.78;;;5.87;100.00
16978;BME280;8605;52.548;4.918;2024-02-28T08:20:44;102123.34;;;5.89;99.80
16978;BME280;8605;52.548;4.918;2024-02-28T08:23:12;102126.03;;;5.89;99.72
16978;BME280;8605;52.548;4.918;2024-02-28T08:25:41;102127.72;;;5.90;100.00
16978;BME280;8605;52.548;4.918;2024-02-28T08:28:09;102129.25;;;5.94;99.68
16978;BME280;8605;52.548;4.918;2024-02-28T08:30:37;102130.78;;;5.98;99.86
16978;BME280;8605;52.548;4.918;2024-02-28T08:33:06;102135.84;;;6.03;99.93
16978;BME280;8605;52.548;4.918;2024-02-28T08:35:35;102124.38;;;6.00;99.72
16978;BME280;8605;52.548;4.918;2024-02-28T08:38:03;102133.75;;;6.08;99.83
16978;BME280;8605;52.548;4.918;2024-02-28T08:40:31;102126.38;;;6.11;99.77
16978;BME280;8605;52.548;4.918;2024-02-28T08:43:00;102138.84;;;6.25;99.77
16978;BME280;8605;52.548;4.918;2024-02-28T08:45:28;102133.72;;;6.22;99.77
16978;BME280;8605;52.548;4.918;2024-02-28T08:47:56;102135.41;;;6.23;99.46
16978;BME280;8605;52.548;4.918;2024-02-28T08:50:27;102132.56;;;6.26;99.63
16978;BME280;8605;52.548;4.918;2024-02-28T08:52:55;102129.03;;;6.25;99.20
16978;BME280;8605;52.548;4.918;2024-02-28T08:55:24;102131.41;;;6.30;99.50
16978;BME280;8605;52.548;4.918;2024-02-28T08:57:51;102130.34;;;6.32;99.38
16978;BME280;8605;52.548;4.918;2024-02-28T09:00:21;102133.50;;;6.39;99.49
16978;BME280;8605;52.548;4.918;2024-02-28T09:02:49;102131.59;;;6.41;99.35
16978;BME280;8605;52.548;4.918;2024-02-28T09:05:17;102132.53;;;6.40;99.29
16978;BME280;8605;52.548;4.918;2024-02-28T09:07:44;102128.06;;;6.40;99.42
16978;BME280;8605;52.548;4.918;2024-02-28T09:10:18;102129.78;;;6.41;99.18
16978;BME280;8605;52.548;4.918;2024-02-28T09:12:47;102138.81;;;6.53;99.11
16978;BME280;8605;52.548;4.918;2024-02-28T09:15:15;102131.53;;;6.55;99.15
16978;BME280;8605;52.548;4.918;2024-02-28T09:17:45;102122.81;;;6.66;98.66
16978;BME280;8605;52.548;4.918;2024-02-28T09:20:13;102131.19;;;6.74;98.92
16978;BME280;8605;52.548;4.918;2024-02-28T09:22:42;102130.78;;;6.80;99.15
16978;BME280;8605;52.548;4.918;2024-02-28T09:25:10;102131.03;;;6.90;98.41
16978;BME280;8605;52.548;4.918;2024-02-28T09:27:38;102126.56;;;7.03;98.73
16978;BME280;8605;52.548;4.918;2024-02-28T09:30:07;102127.09;;;7.08;98.08
16978;BME280;8605;52.548;4.918;2024-02-28T09:32:34;102132.25;;;7.11;98.58
16978;BME280;8605;52.548;4.918;2024-02-28T09:35:04;102136.22;;;7.05;98.51
16978;BME280;8605;52.548;4.918;2024-02-28T09:37:33;102136.84;;;7.09;98.27
16978;BME280;8605;52.548;4.918;2024-02-28T09:40:01;102139.22;;;7.13;97.77
16978;BME280;8605;52.548;4.918;2024-02-28T09:42:29;102147.41;;;7.25;97.67
16978;BME280;8605;52.548;4.918;2024-02-28T09:45:00;102138.09;;;7.43;97.86
16978;BME280;8605;52.548;4.918;2024-02-28T09:47:28;102147.00;;;7.43;97.45
16978;BME280;8605;52.548;4.918;2024-02-28T09:49:57;102140.44;;;7.47;97.32
16978;BME280;8605;52.548;4.918;2024-02-28T09:52:27;102138.00;;;7.44;97.55
16978;BME280;8605;52.548;4.918;2024-02-28T09:54:55;102134.75;;;7.39;97.19
16978;BME280;8605;52.548;4.918;2024-02-28T09:57:23;102132.84;;;7.41;97.42
16978;BME280;8605;52.548;4.918;2024-02-28T09:59:55;102130.91;;;7.43;97.36
16978;BME280;8605;52.548;4.918;2024-02-28T10:02:26;102131.56;;;7.47;97.39
16978;BME280;8605;52.548;4.918;2024-02-28T10:04:55;102126.44;;;7.44;97.54
16978;BME280;8605;52.548;4.918;2024-02-28T10:07:24;102136.63;;;7.51;97.45
16978;BME280;8605;52.548;4.918;2024-02-28T10:09:53;102132.53;;;7.58;97.42
16978;BME280;8605;52.548;4.918;2024-02-28T10:12:21;102124.38;;;7.60;97.00
16978;BME280;8605;52.548;4.918;2024-02-28T10:14:49;102130.28;;;7.65;97.40
16978;BME280;8605;52.548;4.918;2024-02-28T10:17:18;102137.25;;;7.68;97.36
16978;BME280;8605;52.548;4.918;2024-02-28T10:19:45;102137.06;;;7.71;97.14
16978;BME280;8605;52.548;4.918;2024-02-28T10:22:13;102129.97;;;7.70;96.96
16978;BME280;8605;52.548;4.918;2024-02-28T10:24:41;102131.78;;;7.69;96.72
16978;BME280;8605;52.548;4.918;2024-02-28T10:27:15;102133.72;;;7.80;96.94
16978;BME280;8605;52.548;4.918;2024-02-28T10:29:44;102125.03;;;7.76;96.43
16978;BME280;8605;52.548;4.918;2024-02-28T10:32:13;102130.41;;;7.76;96.23
16978;BME280;8605;52.548;4.918;2024-02-28T10:34:41;102136.19;;;7.70;96.17
16978;BME280;8605;52.548;4.918;2024-02-28T10:37:09;102123.84;;;7.80;96.51
16978;BME280;8605;52.548;4.918;2024-02-28T10:39:38;102131.25;;;7.89;96.22
16978;BME280;8605;52.548;4.918;2024-02-28T10:42:07;102137.22;;;7.93;96.19
16978;BME280;8605;52.548;4.918;2024-02-28T10:44:38;102129.97;;;7.82;96.09
16978;BME280;8605;52.548;4.918;2024-02-28T10:47:08;102139.38;;;7.88;96.19
16978;BME280;8605;52.548;4.918;2024-02-28T10:49:39;102126.63;;;7.91;96.17
16978;BME280;8605;52.548;4.918;2024-02-28T10:52:08;102133.25;;;7.98;96.25
16978;BME280;8605;52.548;4.918;2024-02-28T10:54:39;102138.00;;;7.95;95.67
16978;BME280;8605;52.548;4.918;2024-02-28T10:57:10;102130.81;;;7.95;96.00
16978;BME280;8605;52.548;4.918;2024-02-28T10:59:42;102132.63;;;7.95;95.74
16978;BME280;8605;52.548;4.918;2024-02-28T11:02:12;102136.25;;;8.07;95.83
16978;BME280;8605;52.548;4.918;2024-02-28T11:04:41;102135.91;;;8.11;96.31
16978;BME280;8605;52.548;4.918;2024-02-28T11:07:19;102126.19;;;8.10;96.41
16978;BME280;8605;52.548;4.918;2024-02-28T11:09:47;102131.22;;;8.02;95.86
16978;BME280;8605;52.548;4.918;2024-02-28T11:12:25;102133.06;;;8.01;96.24
16978;BME280;8605;52.548;4.918;2024-02-28T11:14:59;102131.13;;;8.03;95.45
16978;BME280;8605;52.548;4.918;2024-02-28T11:17:31;102132.16;;;8.14;96.52
16978;BME280;8605;52.548;4.918;2024-02-28T11:20:11;102123.22;;;8.26;95.46
16978;BME280;8605;52.548;4.918;2024-02-28T11:22:39;102130.22;;;8.41;94.69
16978;BME280;8605;52.548;4.918;2024-02-28T11:25:07;102120.34;;;8.41;95.52
16978;BME280;8605;52.548;4.918;2024-02-28T11:27:48;102125.91;;;8.38;94.35
16978;BME280;8605;52.548;4.918;2024-02-28T11:30:17;102118.97;;;8.36;94.78
16978;BME280;8605;52.548;4.918;2024-02-28T11:32:45;102115.63;;;8.32;95.29
16978;BME280;8605;52.548;4.918;2024-02-28T11:35:13;102120.91;;;8.34;95.09
16978;BME280;8605;52.548;4.918;2024-02-28T11:37:41;102106.84;;;8.30;94.89
16978;BME280;8605;52.548;4.918;2024-02-28T11:40:09;102116.38;;;8.34;95.31
16978;BME280;8605;52.548;4.918;2024-02-28T11:42:38;102118.72;;;8.26;95.05
16978;BME280;8605;52.548;4.918;2024-02-28T11:45:09;102115.63;;;8.32;94.69
16978;BME280;8605;52.548;4.918;2024-02-28T11:47:39;102122.47;;;8.36;95.23
16978;BME280;8605;52.548;4.918;2024-02-28T11:50:07;102114.00;;;8.43;94.86
16978;BME280;8605;52.548;4.918;2024-02-28T11:52:36;102114.38;;;8.49;94.31
16978;BME280;8605;52.548;4.918;2024-02-28T11:55:04;102108.91;;;8.51;94.49
16978;BME280;8605;52.548;4.918;2024-02-28T11:57:33;102122.22;;;8.52;93.93
16978;BME280;8605;52.548;4.918;2024-02-28T12:00:03;102116.84;;;8.52;94.24
16978;BME280;8605;52.548;4.918;2024-02-28T12:02:32;102116.25;;;8.49;94.28
16978;BME280;8605;52.548;4.918;2024-02-28T12:05:04;102105.38;;;8.50;94.44
16978;BME280;8605;52.548;4.918;2024-02-28T12:07:32;102103.56;;;8.51;93.98
16978;BME280;8605;52.548;4.918;2024-02-28T12:10:00;102113.38;;;8.63;93.54
16978;BME280;8605;52.548;4.918;2024-02-28T12:12:28;102105.97;;;8.66;93.58
16978;BME280;8605;52.548;4.918;2024-02-28T12:14:58;102100.94;;;8.62;94.02
16978;BME280;8605;52.548;4.918;2024-02-28T12:17:27;102108.75;;;8.65;93.55
16978;BME280;8605;52.548;4.918;2024-02-28T12:19:55;102108.28;;;8.71;94.25
16978;BME280;8605;52.548;4.918;2024-02-28T12:22:24;102097.91;;;8.66;93.98
16978;BME280;8605;52.548;4.918;2024-02-28T12:24:51;102103.22;;;8.79;94.02
16978;BME280;8605;52.548;4.918;2024-02-28T12:27:20;102099.88;;;8.75;94.15
16978;BME280;8605;52.548;4.918;2024-02-28T12:29:47;102088.69;;;8.81;94.53
16978;BME280;8605;52.548;4.918;2024-02-28T12:32:15;102099.22;;;8.85;93.93
16978;BME280;8605;52.548;4.918;2024-02-28T12:34:44;102103.97;;;8.81;94.14
16978;BME280;8605;52.548;4.918;2024-02-28T12:37:12;102095.78;;;8.82;93.06
16978;BME280;8605;52.548;4.918;2024-02-28T12:39:41;102092.88;;;8.86;92.76
16978;BME280;8605;52.548;4.918;2024-02-28T12:42:09;102085.22;;;8.92;92.77
16978;BME280;8605;52.548;4.918;2024-02-28T12:44:37;102084.47;;;8.90;93.72
16978;BME280;8605;52.548;4.918;2024-02-28T12:47:06;102075.94;;;8.96;93.40
16978;BME280;8605;52.548;4.918;2024-02-28T12:49:34;102080.34;;;8.97;92.36
16978;BME280;8605;52.548;4.918;2024-02-28T12:52:02;102068.75;;;8.97;91.60
16978;BME280;8605;52.548;4.918;2024-02-28T12:54:30;102073.25;;;8.96;91.55
16978;BME280;8605;52.548;4.918;2024-02-28T12:56:59;102062.19;;;9.01;91.25
16978;BME280;8605;52.548;4.918;2024-02-28T12:59:29;102061.09;;;9.03;91.64
16978;BME280;8605;52.548;4.918;2024-02-28T13:01:57;102052.19;;;9.14;91.95
16978;BME280;8605;52.548;4.918;2024-02-28T13:04:25;102054.16;;;9.23;92.65
16978;BME280;8605;52.548;4.918;2024-02-28T13:06:54;102045.75;;;9.28;92.08
16978;BME280;8605;52.548;4.918;2024-02-28T13:09:22;102055.53;;;9.29;91.07
16978;BME280;8605;52.548;4.918;2024-02-28T13:11:50;102040.53;;;9.37;91.07
16978;BME280;8605;52.548;4.918;2024-02-28T13:14:19;102046.75;;;9.38;90.75
16978;BME280;8605;52.548;4.918;2024-02-28T13:16:47;102053.31;;;9.34;89.38